Terminal Aerodrome Forecast
Issued by NWS New Orleans/Baton Rouge, LA

Home | Current Version | Previous Version | Text Only | Print | Product List | Glossary On
Versions: 1 2 3 4 5 6 7 8 9 10 11 12 13 14 15 16 17 18
804
FTUS44 KLIX 010520
TAFBTR
TAF
KBTR 010520Z 0106/0206 30005KT P6SM SKC
     FM010900 29004KT P6SM SKC
     FM011300 26007KT P6SM SKC
     FM012330 VRB02KT P6SM SKC=

USA.gov is the U.S. government's official web portal to all federal, state and local government web resources and services.